sensor_id;sensor_type;location;lat;lon;timestamp;temperature;humidity
32698;DHT22;19087;51.062;3.754;2022-09-27T00:01:08;11.90;99.90
32698;DHT22;19087;51.062;3.754;2022-09-27T00:03:33;12.10;99.90
32698;DHT22;19087;51.062;3.754;2022-09-27T00:06:12;12.10;99.90
32698;DHT22;19087;51.062;3.754;2022-09-27T00:08:39;12.00;99.90
32698;DHT22;19087;51.062;3.754;2022-09-27T00:11:08;11.80;99.90
32698;DHT22;19087;51.062;3.754;2022-09-27T00:13:38;11.60;99.90
32698;DHT22;19087;51.062;3.754;2022-09-27T00:16:04;11.70;99.90
32698;DHT22;19087;51.062;3.754;2022-09-27T00:18:30;11.70;99.90
32698;DHT22;19087;51.062;3.754;2022-09-27T00:21:04;11.60;99.90
32698;DHT22;19087;51.062;3.754;2022-09-27T00:23:30;11.50;99.90
32698;DHT22;19087;51.062;3.754;2022-09-27T00:25:57;11.30;99.90
32698;DHT22;19087;51.062;3.754;2022-09-27T00:28:24;11.20;99.90
32698;DHT22;19087;51.062;3.754;2022-09-27T00:30:50;11.20;99.90
32698;DHT22;19087;51.062;3.754;2022-09-27T00:33:16;11.30;99.90
32698;DHT22;19087;51.062;3.754;2022-09-27T00:35:42;11.40;99.90
32698;DHT22;19087;51.062;3.754;2022-09-27T00:38:09;11.30;99.90
32698;DHT22;19087;51.062;3.754;2022-09-27T00:40:35;11.20;99.90
32698;DHT22;19087;51.062;3.754;2022-09-27T00:43:01;11.10;99.90
32698;DHT22;19087;51.062;3.754;2022-09-27T00:45:27;11.20;99.90
32698;DHT22;19087;51.062;3.754;2022-09-27T00:47:59;11.30;99.90
32698;DHT22;19087;51.062;3.754;2022-09-27T00:50:35;11.40;99.90
32698;DHT22;19087;51.062;3.754;2022-09-27T00:53:18;11.40;99.90
32698;DHT22;19087;51.062;3.754;2022-09-27T00:55:54;11.40;99.90
32698;DHT22;19087;51.062;3.754;2022-09-27T00:58:26;11.40;99.90
32698;DHT22;19087;51.062;3.754;2022-09-27T01:00:56;11.60;99.90
32698;DHT22;19087;51.062;3.754;2022-09-27T01:03:46;11.40;99.90
32698;DHT22;19087;51.062;3.754;2022-09-27T01:06:14;11.60;99.90
32698;DHT22;19087;51.062;3.754;2022-09-27T01:08:41;11.70;99.90
32698;DHT22;19087;51.062;3.754;2022-09-27T01:17:25;11.70;99.90
32698;DHT22;19087;51.062;3.754;2022-09-27T01:29:21;11.70;99.90
32698;DHT22;19087;51.062;3.754;2022-09-27T01:40:16;11.50;99.90
32698;DHT22;19087;51.062;3.754;2022-09-27T01:43:14;11.50;99.90
32698;DHT22;19087;51.062;3.754;2022-09-27T01:45:57;11.30;99.90
32698;DHT22;19087;51.062;3.754;2022-09-27T01:48:30;11.20;99.90
32698;DHT22;19087;51.062;3.754;2022-09-27T01:51:11;11.10;99.90
32698;DHT22;19087;51.062;3.754;2022-09-27T01:53:41;11.10;99.90
32698;DHT22;19087;51.062;3.754;2022-09-27T01:56:15;11.00;99.90
32698;DHT22;19087;51.062;3.754;2022-09-27T01:58:49;11.10;99.90
32698;DHT22;19087;51.062;3.754;2022-09-27T02:01:17;11.20;99.90
32698;DHT22;19087;51.062;3.754;2022-09-27T02:03:49;11.10;99.90
32698;DHT22;19087;51.062;3.754;2022-09-27T02:06:22;11.10;99.90
32698;DHT22;19087;51.062;3.754;2022-09-27T02:08:57;11.20;99.90
32698;DHT22;19087;51.062;3.754;2022-09-27T02:11:25;11.20;99.90
32698;DHT22;19087;51.062;3.754;2022-09-27T02:19:17;11.40;99.90
32698;DHT22;19087;51.062;3.754;2022-09-27T02:24:23;11.50;99.90
32698;DHT22;19087;51.062;3.754;2022-09-27T02:27:44;11.60;99.90
32698;DHT22;19087;51.062;3.754;2022-09-27T02:29:55;11.40;99.90
32698;DHT22;19087;51.062;3.754;2022-09-27T02:32:23;11.40;99.90
32698;DHT22;19087;51.062;3.754;2022-09-27T02:34:49;11.30;99.90
32698;DHT22;19087;51.062;3.754;2022-09-27T02:37:17;11.20;99.90
32698;DHT22;19087;51.062;3.754;2022-09-27T02:39:42;10.90;99.90
32698;DHT22;19087;51.062;3.754;2022-09-27T02:42:09;11.00;99.90
32698;DHT22;19087;51.062;3.754;2022-09-27T02:44:35;11.20;99.90
32698;DHT22;19087;51.062;3.754;2022-09-27T03:00:11;11.50;99.90
32698;DHT22;19087;51.062;3.754;2022-09-27T03:03:07;11.30;99.90
32698;DHT22;19087;51.062;3.754;2022-09-27T03:05:40;11.20;99.90
32698;DHT22;19087;51.062;3.754;2022-09-27T03:08:07;10.80;99.90
32698;DHT22;19087;51.062;3.754;2022-09-27T03:10:34;10.80;99.90
32698;DHT22;19087;51.062;3.754;2022-09-27T03:13:00;10.90;99.90
32698;DHT22;19087;51.062;3.754;2022-09-27T03:15:26;10.90;99.90
32698;DHT22;19087;51.062;3.754;2022-09-27T03:17:52;10.80;99.90
32698;DHT22;19087;51.062;3.754;2022-09-27T03:20:17;10.70;99.90
32698;DHT22;19087;51.062;3.754;2022-09-27T03:22:43;10.60;99.90
32698;DHT22;19087;51.062;3.754;2022-09-27T03:25:08;10.80;99.90
32698;DHT22;19087;51.062;3.754;2022-09-27T03:27:34;10.70;99.90
32698;DHT22;19087;51.062;3.754;2022-09-27T03:30:00;10.50;99.90
32698;DHT22;19087;51.062;3.754;2022-09-27T03:32:26;10.40;99.90
32698;DHT22;19087;51.062;3.754;2022-09-27T03:34:52;10.40;99.90
32698;DHT22;19087;51.062;3.754;2022-09-27T03:37:20;10.40;99.90
32698;DHT22;19087;51.062;3.754;2022-09-27T03:39:46;10.30;99.90
32698;DHT22;19087;51.062;3.754;2022-09-27T03:42:11;10.40;99.90
32698;DHT22;19087;51.062;3.754;2022-09-27T03:44:37;10.40;99.90
32698;DHT22;19087;51.062;3.754;2022-09-27T03:47:03;10.30;99.90
32698;DHT22;19087;51.062;3.754;2022-09-27T03:49:28;10.30;99.90
32698;DHT22;19087;51.062;3.754;2022-09-27T03:51:54;10.40;99.90
32698;DHT22;19087;51.062;3.754;2022-09-27T03:54:20;10.50;99.90
32698;DHT22;19087;51.062;3.754;2022-09-27T03:56:45;10.50;99.90
32698;DHT22;19087;51.062;3.754;2022-09-27T03:59:11;10.60;99.90
32698;DHT22;19087;51.062;3.754;2022-09-27T04:01:37;10.70;99.90
32698;DHT22;19087;51.062;3.754;2022-09-27T04:04:03;10.70;99.90
32698;DHT22;19087;51.062;3.754;2022-09-27T04:06:29;10.60;99.90
32698;DHT22;19087;51.062;3.754;2022-09-27T04:08:55;10.30;99.90
32698;DHT22;19087;51.062;3.754;2022-09-27T04:11:21;10.10;99.90
32698;DHT22;19087;51.062;3.754;2022-09-27T04:13:48;10.10;99.90
32698;DHT22;19087;51.062;3.754;2022-09-27T04:16:14;10.30;99.90
32698;DHT22;19087;51.062;3.754;2022-09-27T04:18:41;10.30;99.90
32698;DHT22;19087;51.062;3.754;2022-09-27T04:21:07;10.20;99.90
32698;DHT22;19087;51.062;3.754;2022-09-27T04:23:33;10.20;99.90
32698;DHT22;19087;51.062;3.754;2022-09-27T04:25:59;10.20;99.90
32698;DHT22;19087;51.062;3.754;2022-09-27T04:28:25;10.20;99.90
32698;DHT22;19087;51.062;3.754;2022-09-27T04:30:52;10.20;99.90
32698;DHT22;19087;51.062;3.754;2022-09-27T04:33:18;10.10;99.90
32698;DHT22;19087;51.062;3.754;2022-09-27T04:35:44;10.00;99.90
32698;DHT22;19087;51.062;3.754;2022-09-27T04:38:28;10.10;99.90
32698;DHT22;19087;51.062;3.754;2022-09-27T04:40:54;10.10;99.90
32698;DHT22;19087;51.062;3.754;2022-09-27T04:43:20;10.00;99.90
32698;DHT22;19087;51.062;3.754;2022-09-27T04:45:45;10.00;99.90
32698;DHT22;19087;51.062;3.754;2022-09-27T04:48:11;10.10;99.90
32698;DHT22;19087;51.062;3.754;2022-09-27T04:50:37;10.00;99.90
32698;DHT22;19087;51.062;3.754;2022-09-27T04:53:04;10.00;99.90
32698;DHT22;19087;51.062;3.754;2022-09-27T04:55:30;10.00;99.90
32698;DHT22;19087;51.062;3.754;2022-09-27T04:57:56;10.10;99.90
32698;DHT22;19087;51.062;3.754;2022-09-27T05:00:21;10.10;99.90
32698;DHT22;19087;51.062;3.754;2022-09-27T05:02:47;10.10;99.90
32698;DHT22;19087;51.062;3.754;2022-09-27T05:05:14;10.20;99.90
32698;DHT22;19087;51.062;3.754;2022-09-27T05:07:40;10.10;99.90
32698;DHT22;19087;51.062;3.754;2022-09-27T05:10:07;10.00;99.90
32698;DHT22;19087;51.062;3.754;2022-09-27T05:12:33;10.00;99.90
32698;DHT22;19087;51.062;3.754;2022-09-27T05:14:59;10.10;99.90
32698;DHT22;19087;51.062;3.754;2022-09-27T05:17:25;10.20;99.90
32698;DHT22;19087;51.062;3.754;2022-09-27T05:19:51;10.10;99.90
32698;DHT22;19087;51.062;3.754;2022-09-27T05:22:17;10.10;99.90
32698;DHT22;19087;51.062;3.754;2022-09-27T05:24:43;10.10;99.90
32698;DHT22;19087;51.062;3.754;2022-09-27T05:27:12;10.30;99.90
32698;DHT22;19087;51.062;3.754;2022-09-27T05:29:41;10.20;99.90
32698;DHT22;19087;51.062;3.754;2022-09-27T05:32:06;10.20;99.90
32698;DHT22;19087;51.062;3.754;2022-09-27T05:34:32;10.10;99.90
32698;DHT22;19087;51.062;3.754;2022-09-27T05:36:58;10.20;99.90
32698;DHT22;19087;51.062;3.754;2022-09-27T05:39:24;10.10;99.90
32698;DHT22;19087;51.062;3.754;2022-09-27T05:41:50;10.00;99.90
32698;DHT22;19087;51.062;3.754;2022-09-27T05:44:16;10.10;99.90
32698;DHT22;19087;51.062;3.754;2022-09-27T05:46:42;10.10;99.90
32698;DHT22;19087;51.062;3.754;2022-09-27T05:49:07;10.00;99.90
32698;DHT22;19087;51.062;3.754;2022-09-27T05:51:33;9.90;99.90
32698;DHT22;19087;51.062;3.754;2022-09-27T05:53:59;10.10;99.90
32698;DHT22;19087;51.062;3.754;2022-09-27T05:56:25;10.10;99.90
32698;DHT22;19087;51.062;3.754;2022-09-27T05:58:51;10.30;99.90
32698;DHT22;19087;51.062;3.754;2022-09-27T06:01:17;10.50;99.90
32698;DHT22;19087;51.062;3.754;2022-09-27T06:03:43;10.40;99.90
32698;DHT22;19087;51.062;3.754;2022-09-27T06:06:09;10.40;99.90
32698;DHT22;19087;51.062;3.754;2022-09-27T06:08:36;10.40;99.90
32698;DHT22;19087;51.062;3.754;2022-09-27T06:11:07;10.40;99.90
32698;DHT22;19087;51.062;3.754;2022-09-27T06:13:34;10.40;99.90
32698;DHT22;19087;51.062;3.754;2022-09-27T06:16:04;10.40;99.90
32698;DHT22;19087;51.062;3.754;2022-09-27T06:18:30;10.60;99.90
32698;DHT22;19087;51.062;3.754;2022-09-27T06:21:00;10.70;99.90
32698;DHT22;19087;51.062;3.754;2022-09-27T06:23:26;10.60;99.90
32698;DHT22;19087;51.062;3.754;2022-09-27T06:25:52;10.70;99.90
32698;DHT22;19087;51.062;3.754;2022-09-27T06:28:20;10.80;99.90
32698;DHT22;19087;51.062;3.754;2022-09-27T06:30:47;10.80;99.90
32698;DHT22;19087;51.062;3.754;2022-09-27T06:33:18;10.70;99.90
32698;DHT22;19087;51.062;3.754;2022-09-27T06:35:44;10.70;99.90
32698;DHT22;19087;51.062;3.754;2022-09-27T06:38:12;10.80;99.90
32698;DHT22;19087;51.062;3.754;2022-09-27T06:40:41;10.70;99.90
32698;DHT22;19087;51.062;3.754;2022-09-27T06:43:11;10.60;99.90
32698;DHT22;19087;51.062;3.754;2022-09-27T06:45:37;10.60;99.90
32698;DHT22;19087;51.062;3.754;2022-09-27T06:48:05;10.70;99.90
32698;DHT22;19087;51.062;3.754;2022-09-27T06:50:33;10.70;99.90
32698;DHT22;19087;51.062;3.754;2022-09-27T06:52:59;10.80;99.90
32698;DHT22;19087;51.062;3.754;2022-09-27T06:55:25;10.80;99.90
32698;DHT22;19087;51.062;3.754;2022-09-27T06:57:59;10.80;99.90
32698;DHT22;19087;51.062;3.754;2022-09-27T07:00:43;10.70;99.90
32698;DHT22;19087;51.062;3.754;2022-09-27T07:03:12;10.70;99.90
32698;DHT22;19087;51.062;3.754;2022-09-27T07:05:42;10.90;99.90
32698;DHT22;19087;51.062;3.754;2022-09-27T07:08:11;10.90;99.90
32698;DHT22;19087;51.062;3.754;2022-09-27T07:10:38;10.80;99.90
32698;DHT22;19087;51.062;3.754;2022-09-27T07:13:05;10.70;99.90
32698;DHT22;19087;51.062;3.754;2022-09-27T07:15:33;10.60;99.90
32698;DHT22;19087;51.062;3.754;2022-09-27T07:18:02;10.70;99.90
32698;DHT22;19087;51.062;3.754;2022-09-27T07:20:29;10.90;99.90
32698;DHT22;19087;51.062;3.754;2022-09-27T07:22:56;10.90;99.90
32698;DHT22;19087;51.062;3.754;2022-09-27T07:25:22;11.00;99.90
32698;DHT22;19087;51.062;3.754;2022-09-27T07:27:48;11.10;99.90
32698;DHT22;19087;51.062;3.754;2022-09-27T07:30:14;11.30;99.90
32698;DHT22;19087;51.062;3.754;2022-09-27T07:32:42;11.10;99.90
32698;DHT22;19087;51.062;3.754;2022-09-27T07:35:08;11.10;99.90
32698;DHT22;19087;51.062;3.754;2022-09-27T07:37:35;11.00;99.90
32698;DHT22;19087;51.062;3.754;2022-09-27T07:40:03;10.70;99.90
32698;DHT22;19087;51.062;3.754;2022-09-27T07:42:31;10.50;99.90
32698;DHT22;19087;51.062;3.754;2022-09-27T07:44:56;10.50;99.90
32698;DHT22;19087;51.062;3.754;2022-09-27T07:47:23;10.70;99.90
32698;DHT22;19087;51.062;3.754;2022-09-27T07:49:50;10.80;99.90
32698;DHT22;19087;51.062;3.754;2022-09-27T07:52:17;11.00;99.90
32698;DHT22;19087;51.062;3.754;2022-09-27T07:54:44;11.20;99.90
32698;DHT22;19087;51.062;3.754;2022-09-27T07:57:10;11.20;99.90
32698;DHT22;19087;51.062;3.754;2022-09-27T07:59:35;11.10;99.90
32698;DHT22;19087;51.062;3.754;2022-09-27T08:02:01;11.20;99.90
32698;DHT22;19087;51.062;3.754;2022-09-27T08:04:27;11.30;99.90
32698;DHT22;19087;51.062;3.754;2022-09-27T08:06:53;11.40;99.90
32698;DHT22;19087;51.062;3.754;2022-09-27T08:09:19;11.50;99.90
32698;DHT22;19087;51.062;3.754;2022-09-27T08:11:45;11.60;99.90
32698;DHT22;19087;51.062;3.754;2022-09-27T08:14:11;11.70;99.90
32698;DHT22;19087;51.062;3.754;2022-09-27T08:16:36;11.80;99.90
32698;DHT22;19087;51.062;3.754;2022-09-27T08:19:02;11.90;99.90
32698;DHT22;19087;51.062;3.754;2022-09-27T08:21:28;12.00;99.90
32698;DHT22;19087;51.062;3.754;2022-09-27T08:23:55;12.00;99.90
32698;DHT22;19087;51.062;3.754;2022-09-27T08:26:21;11.90;99.90
32698;DHT22;19087;51.062;3.754;2022-09-27T08:28:47;11.80;99.90
32698;DHT22;19087;51.062;3.754;2022-09-27T08:31:13;11.70;99.90
32698;DHT22;19087;51.062;3.754;2022-09-27T08:33:39;11.80;99.90
32698;DHT22;19087;51.062;3.754;2022-09-27T08:36:10;12.00;99.90
32698;DHT22;19087;51.062;3.754;2022-09-27T08:38:36;12.20;99.90
32698;DHT22;19087;51.062;3.754;2022-09-27T08:44:21;12.70;99.90
32698;DHT22;19087;51.062;3.754;2022-09-27T08:49:32;13.10;99.90
32698;DHT22;19087;51.062;3.754;2022-09-27T08:52:00;13.20;99.90
32698;DHT22;19087;51.062;3.754;2022-09-27T08:54:30;13.50;99.90
32698;DHT22;19087;51.062;3.754;2022-09-27T08:57:09;13.60;99.90
32698;DHT22;19087;51.062;3.754;2022-09-27T08:59:41;13.70;99.90
32698;DHT22;19087;51.062;3.754;2022-09-27T09:02:19;13.60;99.90
32698;DHT22;19087;51.062;3.754;2022-09-27T09:04:47;13.80;99.90
32698;DHT22;19087;51.062;3.754;2022-09-27T09:13:19;14.20;99.90
32698;DHT22;19087;51.062;3.754;2022-09-27T09:24:00;14.40;99.90
32698;DHT22;19087;51.062;3.754;2022-09-27T09:26:46;14.30;99.90
32698;DHT22;19087;51.062;3.754;2022-09-27T09:29:35;14.20;99.90
32698;DHT22;19087;51.062;3.754;2022-09-27T09:35:02;14.30;99.90
32698;DHT22;19087;51.062;3.754;2022-09-27T09:37:41;14.60;99.90
32698;DHT22;19087;51.062;3.754;2022-09-27T09:47:53;15.10;99.90
32698;DHT22;19087;51.062;3.754;2022-09-27T09:50:30;15.20;99.90
32698;DHT22;19087;51.062;3.754;2022-09-27T09:53:19;15.30;99.90
32698;DHT22;19087;51.062;3.754;2022-09-27T09:55:51;15.30;99.90
32698;DHT22;19087;51.062;3.754;2022-09-27T09:58:33;15.40;99.90
32698;DHT22;19087;51.062;3.754;2022-09-27T10:01:12;15.30;99.90
32698;DHT22;19087;51.062;3.754;2022-09-27T10:03:38;15.40;99.90
32698;DHT22;19087;51.062;3.754;2022-09-27T10:06:05;15.50;99.90
32698;DHT22;19087;51.062;3.754;2022-09-27T10:08:31;15.50;99.90
32698;DHT22;19087;51.062;3.754;2022-09-27T10:10:57;15.50;99.90
32698;DHT22;19087;51.062;3.754;2022-09-27T10:13:23;15.60;99.90
32698;DHT22;19087;51.062;3.754;2022-09-27T10:18:27;15.60;99.90
32698;DHT22;19087;51.062;3.754;2022-09-27T10:20:59;15.10;99.90
32698;DHT22;19087;51.062;3.754;2022-09-27T10:23:26;14.60;99.90
32698;DHT22;19087;51.062;3.754;2022-09-27T10:25:55;14.30;99.90
32698;DHT22;19087;51.062;3.754;2022-09-27T10:28:43;14.20;99.90
32698;DHT22;19087;51.062;3.754;2022-09-27T10:31:15;14.20;99.90
32698;DHT22;19087;51.062;3.754;2022-09-27T10:34:02;14.10;99.90
32698;DHT22;19087;51.062;3.754;2022-09-27T10:36:33;14.10;99.90
32698;DHT22;19087;51.062;3.754;2022-09-27T10:39:02;14.20;99.90
32698;DHT22;19087;51.062;3.754;2022-09-27T10:41:35;14.30;99.90
32698;DHT22;19087;51.062;3.754;2022-09-27T10:46:44;14.60;99.90
32698;DHT22;19087;51.062;3.754;2022-09-27T10:49:21;14.80;99.90
32698;DHT22;19087;51.062;3.754;2022-09-27T10:51:53;15.20;99.90
32698;DHT22;19087;51.062;3.754;2022-09-27T10:54:23;15.60;99.90
32698;DHT22;19087;51.062;3.754;2022-09-27T10:57:03;16.00;99.90
32698;DHT22;19087;51.062;3.754;2022-09-27T10:59:33;15.80;99.90
32698;DHT22;19087;51.062;3.754;2022-09-27T11:01:59;15.90;99.90
32698;DHT22;19087;51.062;3.754;2022-09-27T11:04:36;16.20;99.90
32698;DHT22;19087;51.062;3.754;2022-09-27T11:07:15;16.10;99.90
32698;DHT22;19087;51.062;3.754;2022-09-27T11:09:48;16.30;99.90
32698;DHT22;19087;51.062;3.754;2022-09-27T11:12:15;16.60;99.90
32698;DHT22;19087;51.062;3.754;2022-09-27T11:14:53;16.40;99.90
32698;DHT22;19087;51.062;3.754;2022-09-27T11:17:27;16.50;99.90
32698;DHT22;19087;51.062;3.754;2022-09-27T11:20:23;16.30;99.90
32698;DHT22;19087;51.062;3.754;2022-09-27T11:23:22;16.10;99.90
32698;DHT22;19087;51.062;3.754;2022-09-27T11:26:24;16.00;99.90
32698;DHT22;19087;51.062;3.754;2022-09-27T11:29:03;16.00;99.90
32698;DHT22;19087;51.062;3.754;2022-09-27T11:37:18;16.60;99.90
32698;DHT22;19087;51.062;3.754;2022-09-27T11:53:40;16.30;97.90
32698;DHT22;19087;51.062;3.754;2022-09-27T11:59:27;16.10;98.40
32698;DHT22;19087;51.062;3.754;2022-09-27T12:07:26;16.60;99.10
32698;DHT22;19087;51.062;3.754;2022-09-27T12:10:02;16.50;99.90
32698;DHT22;19087;51.062;3.754;2022-09-27T12:12:32;16.30;99.90
32698;DHT22;19087;51.062;3.754;2022-09-27T12:15:21;15.90;99.90
32698;DHT22;19087;51.062;3.754;2022-09-27T12:17:53;15.50;99.90
32698;DHT22;19087;51.062;3.754;2022-09-27T12:20:20;15.00;99.90
32698;DHT22;19087;51.062;3.754;2022-09-27T12:22:54;15.10;99.90
32698;DHT22;19087;51.062;3.754;2022-09-27T12:25:23;15.20;99.90
32698;DHT22;19087;51.062;3.754;2022-09-27T12:28:17;15.30;99.90
32698;DHT22;19087;51.062;3.754;2022-09-27T12:30:45;15.30;99.90
32698;DHT22;19087;51.062;3.754;2022-09-27T12:33:40;15.50;99.90
32698;DHT22;19087;51.062;3.754;2022-09-27T12:36:09;15.50;99.90
32698;DHT22;19087;51.062;3.754;2022-09-27T12:38:38;15.60;99.90
32698;DHT22;19087;51.062;3.754;2022-09-27T12:41:08;15.80;99.90
32698;DHT22;19087;51.062;3.754;2022-09-27T12:43:34;15.40;99.90
32698;DHT22;19087;51.062;3.754;2022-09-27T12:48:41;15.10;99.90
32698;DHT22;19087;51.062;3.754;2022-09-27T12:51:13;14.80;99.90
32698;DHT22;19087;51.062;3.754;2022-09-27T12:57:02;15.00;99.90
32698;DHT22;19087;51.062;3.754;2022-09-27T12:59:48;14.90;99.90
32698;DHT22;19087;51.062;3.754;2022-09-27T13:08:30;14.70;99.90
32698;DHT22;19087;51.062;3.754;2022-09-27T13:13:36;15.00;99.90
32698;DHT22;19087;51.062;3.754;2022-09-27T13:16:05;15.20;99.90
32698;DHT22;19087;51.062;3.754;2022-09-27T13:18:51;15.10;99.90
32698;DHT22;19087;51.062;3.754;2022-09-27T13:21:54;15.30;99.90
32698;DHT22;19087;51.062;3.754;2022-09-27T13:24:47;15.10;99.90
32698;DHT22;19087;51.062;3.754;2022-09-27T13:29:52;15.40;99.90
32698;DHT22;19087;51.062;3.754;2022-09-27T13:32:36;15.60;99.90
32698;DHT22;19087;51.062;3.754;2022-09-27T13:35:19;15.70;99.90
32698;DHT22;19087;51.062;3.754;2022-09-27T13:47:58;16.50;99.90
32698;DHT22;19087;51.062;3.754;2022-09-27T13:50:31;16.40;99.90
32698;DHT22;19087;51.062;3.754;2022-09-27T13:53:24;16.40;99.90
32698;DHT22;19087;51.062;3.754;2022-09-27T13:55:53;16.30;99.90
32698;DHT22;19087;51.062;3.754;2022-09-27T14:00:50;16.10;99.90
32698;DHT22;19087;51.062;3.754;2022-09-27T14:05:58;15.80;99.90
32698;DHT22;19087;51.062;3.754;2022-09-27T14:08:32;15.70;99.90
32698;DHT22;19087;51.062;3.754;2022-09-27T14:11:01;15.40;99.90
32698;DHT22;19087;51.062;3.754;2022-09-27T14:13:28;15.10;99.90
32698;DHT22;19087;51.062;3.754;2022-09-27T14:15:58;15.00;99.90
32698;DHT22;19087;51.062;3.754;2022-09-27T14:18:24;14.90;99.90
32698;DHT22;19087;51.062;3.754;2022-09-27T14:20:51;14.70;99.90
32698;DHT22;19087;51.062;3.754;2022-09-27T14:23:20;14.70;99.90
32698;DHT22;19087;51.062;3.754;2022-09-27T14:25:48;14.50;99.90
32698;DHT22;19087;51.062;3.754;2022-09-27T14:28:23;14.60;99.90
32698;DHT22;19087;51.062;3.754;2022-09-27T14:31:16;14.60;99.90
32698;DHT22;19087;51.062;3.754;2022-09-27T14:33:43;14.60;99.90
32698;DHT22;19087;51.062;3.754;2022-09-27T14:36:33;14.70;99.90
32698;DHT22;19087;51.062;3.754;2022-09-27T14:39:27;14.80;99.90
32698;DHT22;19087;51.062;3.754;2022-09-27T14:41:55;14.70;99.90
32698;DHT22;19087;51.062;3.754;2022-09-27T14:44:21;14.40;99.90
32698;DHT22;19087;51.062;3.754;2022-09-27T14:47:20;14.20;99.90
32698;DHT22;19087;51.062;3.754;2022-09-27T14:50:01;14.10;99.90
32698;DHT22;19087;51.062;3.754;2022-09-27T14:52:31;14.10;99.90
32698;DHT22;19087;51.062;3.754;2022-09-27T14:57:32;14.00;99.90
32698;DHT22;19087;51.062;3.754;2022-09-27T15:00:09;14.10;99.90
32698;DHT22;19087;51.062;3.754;2022-09-27T15:02:40;14.00;99.90
32698;DHT22;19087;51.062;3.754;2022-09-27T15:05:19;14.10;99.90
32698;DHT22;19087;51.062;3.754;2022-09-27T15:07:47;14.30;99.90
32698;DHT22;19087;51.062;3.754;2022-09-27T15:10:18;14.30;99.90
32698;DHT22;19087;51.062;3.754;2022-09-27T15:12:46;14.20;99.90
32698;DHT22;19087;51.062;3.754;2022-09-27T15:15:18;14.10;99.90
32698;DHT22;19087;51.062;3.754;2022-09-27T15:17:45;13.90;99.90
32698;DHT22;19087;51.062;3.754;2022-09-27T15:20:34;14.10;99.90
32698;DHT22;19087;51.062;3.754;2022-09-27T15:23:02;13.80;99.90
32698;DHT22;19087;51.062;3.754;2022-09-27T15:26:03;13.70;99.90
32698;DHT22;19087;51.062;3.754;2022-09-27T15:28:21;13.90;99.90
32698;DHT22;19087;51.062;3.754;2022-09-27T15:30:56;14.20;99.90
32698;DHT22;19087;51.062;3.754;2022-09-27T15:33:27;14.30;99.90
32698;DHT22;19087;51.062;3.754;2022-09-27T15:35:58;14.40;99.90
32698;DHT22;19087;51.062;3.754;2022-09-27T15:43:38;14.80;99.90
32698;DHT22;19087;51.062;3.754;2022-09-27T15:49:25;14.70;99.90
32698;DHT22;19087;51.062;3.754;2022-09-27T15:51:55;14.80;99.90
32698;DHT22;19087;51.062;3.754;2022-09-27T15:54:23;14.80;99.90
32698;DHT22;19087;51.062;3.754;2022-09-27T15:56:51;14.70;99.90
32698;DHT22;19087;51.062;3.754;2022-09-27T15:59:25;14.70;99.90
32698;DHT22;19087;51.062;3.754;2022-09-27T16:01:57;14.70;99.90
32698;DHT22;19087;51.062;3.754;2022-09-27T16:04:24;14.80;99.90
32698;DHT22;19087;51.062;3.754;2022-09-27T16:06:51;14.70;99.90
32698;DHT22;19087;51.062;3.754;2022-09-27T16:09:19;14.70;99.90
32698;DHT22;19087;51.062;3.754;2022-09-27T16:11:48;14.70;99.90
32698;DHT22;19087;51.062;3.754;2022-09-27T16:14:16;14.60;99.90
32698;DHT22;19087;51.062;3.754;2022-09-27T16:16:53;14.60;99.90
32698;DHT22;19087;51.062;3.754;2022-09-27T16:19:21;14.60;99.90
32698;DHT22;19087;51.062;3.754;2022-09-27T16:21:47;14.70;99.90
32698;DHT22;19087;51.062;3.754;2022-09-27T16:24:13;14.80;99.90
32698;DHT22;19087;51.062;3.754;2022-09-27T16:26:39;14.70;99.90
32698;DHT22;19087;51.062;3.754;2022-09-27T16:29:14;14.70;99.90
32698;DHT22;19087;51.062;3.754;2022-09-27T16:31:40;14.60;99.90
32698;DHT22;19087;51.062;3.754;2022-09-27T16:34:10;14.60;99.90
32698;DHT22;19087;51.062;3.754;2022-09-27T16:36:36;14.60;99.90
32698;DHT22;19087;51.062;3.754;2022-09-27T16:39:02;14.70;99.90
32698;DHT22;19087;51.062;3.754;2022-09-27T16:41:31;14.70;99.90
32698;DHT22;19087;51.062;3.754;2022-09-27T16:43:58;14.70;99.90
32698;DHT22;19087;51.062;3.754;2022-09-27T16:46:24;14.70;99.90
32698;DHT22;19087;51.062;3.754;2022-09-27T16:48:50;14.60;99.90
32698;DHT22;19087;51.062;3.754;2022-09-27T16:51:18;14.20;99.90
32698;DHT22;19087;51.062;3.754;2022-09-27T16:54:03;14.30;99.90
32698;DHT22;19087;51.062;3.754;2022-09-27T16:56:33;14.20;99.90
32698;DHT22;19087;51.062;3.754;2022-09-27T16:58:59;14.20;99.90
32698;DHT22;19087;51.062;3.754;2022-09-27T17:01:28;14.20;99.90
32698;DHT22;19087;51.062;3.754;2022-09-27T17:03:54;14.10;99.90
32698;DHT22;19087;51.062;3.754;2022-09-27T17:06:21;14.00;99.90
32698;DHT22;19087;51.062;3.754;2022-09-27T17:08:47;13.80;99.90
32698;DHT22;19087;51.062;3.754;2022-09-27T17:11:15;13.70;99.90
32698;DHT22;19087;51.062;3.754;2022-09-27T17:13:42;13.70;99.90
32698;DHT22;19087;51.062;3.754;2022-09-27T17:16:09;13.60;99.90
32698;DHT22;19087;51.062;3.754;2022-09-27T17:18:36;13.50;99.90
32698;DHT22;19087;51.062;3.754;2022-09-27T17:21:04;13.50;99.90
32698;DHT22;19087;51.062;3.754;2022-09-27T17:23:31;13.30;99.90
32698;DHT22;19087;51.062;3.754;2022-09-27T17:26:02;13.20;99.90
32698;DHT22;19087;51.062;3.754;2022-09-27T17:28:28;13.10;99.90
32698;DHT22;19087;51.062;3.754;2022-09-27T17:31:10;13.00;99.90
32698;DHT22;19087;51.062;3.754;2022-09-27T17:33:40;12.80;99.90
32698;DHT22;19087;51.062;3.754;2022-09-27T17:36:14;12.60;99.90
32698;DHT22;19087;51.062;3.754;2022-09-27T17:38:40;12.50;99.90
32698;DHT22;19087;51.062;3.754;2022-09-27T17:41:09;12.30;99.90
32698;DHT22;19087;51.062;3.754;2022-09-27T17:43:36;12.30;99.90
32698;DHT22;19087;51.062;3.754;2022-09-27T17:46:06;12.10;99.90
32698;DHT22;19087;51.062;3.754;2022-09-27T17:48:32;12.20;99.90
32698;DHT22;19087;51.062;3.754;2022-09-27T17:51:16;12.30;99.90
32698;DHT22;19087;51.062;3.754;2022-09-27T17:53:42;12.40;99.90
32698;DHT22;19087;51.062;3.754;2022-09-27T17:56:08;12.40;99.90
32698;DHT22;19087;51.062;3.754;2022-09-27T17:58:33;12.30;99.90
32698;DHT22;19087;51.062;3.754;2022-09-27T18:01:06;12.50;99.90
32698;DHT22;19087;51.062;3.754;2022-09-27T18:03:33;12.50;99.90
32698;DHT22;19087;51.062;3.754;2022-09-27T18:06:06;12.50;99.90
32698;DHT22;19087;51.062;3.754;2022-09-27T18:08:32;12.40;99.90
32698;DHT22;19087;51.062;3.754;2022-09-27T18:11:12;12.30;99.90
32698;DHT22;19087;51.062;3.754;2022-09-27T18:13:39;12.40;99.90
32698;DHT22;19087;51.062;3.754;2022-09-27T18:16:08;12.20;99.90
32698;DHT22;19087;51.062;3.754;2022-09-27T18:18:35;11.80;99.90
32698;DHT22;19087;51.062;3.754;2022-09-27T18:21:07;11.60;99.90
32698;DHT22;19087;51.062;3.754;2022-09-27T18:23:39;11.50;99.90